sensor_id;sensor_type;location;lat;lon;timestamp;P1;durP1;ratioP1;P2;durP2;ratioP2
23394;SDS011;11870;53.084;18.206;2023-02-05T00:00:36;10.90;;;4.65;;
23394;SDS011;11870;53.084;18.206;2023-02-05T00:03:22;12.10;;;4.90;;
23394;SDS011;11870;53.084;18.206;2023-02-05T00:05:47;11.63;;;4.15;;
23394;SDS011;11870;53.084;18.206;2023-02-05T00:08:13;10.88;;;4.70;;
23394;SDS011;11870;53.084;18.206;2023-02-05T00:10:39;9.77;;;4.47;;
23394;SDS011;11870;53.084;18.206;2023-02-05T00:13:05;12.52;;;4.55;;
23394;SDS011;11870;53.084;18.206;2023-02-05T00:15:33;13.23;;;4.78;;
23394;SDS011;11870;53.084;18.206;2023-02-05T00:18:03;12.70;;;4.70;;
23394;SDS011;11870;53.084;18.206;2023-02-05T00:20:29;10.63;;;4.45;;
23394;SDS011;11870;53.084;18.206;2023-02-05T00:22:55;15.20;;;4.32;;
23394;SDS011;11870;53.084;18.206;2023-02-05T00:25:21;11.35;;;4.60;;
23394;SDS011;11870;53.084;18.206;2023-02-05T00:27:47;12.98;;;4.80;;
23394;SDS011;11870;53.084;18.206;2023-02-05T00:30:13;10.25;;;3.80;;
23394;SDS011;11870;53.084;18.206;2023-02-05T00:32:39;10.45;;;4.43;;
23394;SDS011;11870;53.084;18.206;2023-02-05T00:35:05;11.38;;;4.10;;
23394;SDS011;11870;53.084;18.206;2023-02-05T00:37:31;12.52;;;4.68;;
23394;SDS011;11870;53.084;18.206;2023-02-05T00:39:57;12.68;;;4.85;;
23394;SDS011;11870;53.084;18.206;2023-02-05T00:42:23;15.63;;;5.72;;
23394;SDS011;11870;53.084;18.206;2023-02-05T00:44:49;12.63;;;5.32;;
23394;SDS011;11870;53.084;18.206;2023-02-05T00:47:15;21.73;;;7.82;;
23394;SDS011;11870;53.084;18.206;2023-02-05T00:49:41;70.28;;;21.63;;
23394;SDS011;11870;53.084;18.206;2023-02-05T00:52:07;99.75;;;26.38;;
23394;SDS011;11870;53.084;18.206;2023-02-05T00:54:33;46.60;;;13.13;;
23394;SDS011;11870;53.084;18.206;2023-02-05T00:56:59;20.65;;;7.32;;
23394;SDS011;11870;53.084;18.206;2023-02-05T00:59:24;23.00;;;7.28;;
23394;SDS011;11870;53.084;18.206;2023-02-05T01:01:50;17.83;;;6.60;;
23394;SDS011;11870;53.084;18.206;2023-02-05T01:04:16;18.10;;;7.07;;
23394;SDS011;11870;53.084;18.206;2023-02-05T01:06:42;18.40;;;6.97;;
23394;SDS011;11870;53.084;18.206;2023-02-05T01:09:08;22.67;;;7.50;;
23394;SDS011;11870;53.084;18.206;2023-02-05T01:11:34;17.98;;;7.65;;
23394;SDS011;11870;53.084;18.206;2023-02-05T01:14:00;15.93;;;6.63;;
23394;SDS011;11870;53.084;18.206;2023-02-05T01:16:26;17.55;;;7.22;;
23394;SDS011;11870;53.084;18.206;2023-02-05T01:18:52;24.20;;;8.18;;
23394;SDS011;11870;53.084;18.206;2023-02-05T01:21:21;84.47;;;20.80;;
23394;SDS011;11870;53.084;18.206;2023-02-05T01:23:49;76.05;;;23.17;;
23394;SDS011;11870;53.084;18.206;2023-02-05T01:26:16;76.82;;;21.17;;
23394;SDS011;11870;53.084;18.206;2023-02-05T01:28:42;60.15;;;17.13;;
23394;SDS011;11870;53.084;18.206;2023-02-05T01:31:10;56.60;;;16.98;;
23394;SDS011;11870;53.084;18.206;2023-02-05T01:33:35;58.42;;;16.25;;
23394;SDS011;11870;53.084;18.206;2023-02-05T01:36:01;58.25;;;17.65;;
23394;SDS011;11870;53.084;18.206;2023-02-05T01:38:27;43.67;;;14.77;;
23394;SDS011;11870;53.084;18.206;2023-02-05T01:40:53;36.25;;;12.30;;
23394;SDS011;11870;53.084;18.206;2023-02-05T01:43:19;34.53;;;11.93;;
23394;SDS011;11870;53.084;18.206;2023-02-05T01:45:47;41.97;;;13.65;;
23394;SDS011;11870;53.084;18.206;2023-02-05T01:48:24;41.35;;;13.70;;
23394;SDS011;11870;53.084;18.206;2023-02-05T01:50:58;41.80;;;13.25;;
23394;SDS011;11870;53.084;18.206;2023-02-05T01:53:30;42.95;;;15.15;;
23394;SDS011;11870;53.084;18.206;2023-02-05T01:56:00;65.50;;;16.88;;
23394;SDS011;11870;53.084;18.206;2023-02-05T01:58:30;58.13;;;16.23;;
23394;SDS011;11870;53.084;18.206;2023-02-05T02:01:00;50.03;;;15.98;;
23394;SDS011;11870;53.084;18.206;2023-02-05T02:03:26;42.05;;;13.23;;
23394;SDS011;11870;53.084;18.206;2023-02-05T02:05:54;29.88;;;10.82;;
23394;SDS011;11870;53.084;18.206;2023-02-05T02:08:20;31.88;;;10.45;;
23394;SDS011;11870;53.084;18.206;2023-02-05T02:10:47;33.13;;;10.35;;
23394;SDS011;11870;53.084;18.206;2023-02-05T02:13:14;27.92;;;10.38;;
23394;SDS011;11870;53.084;18.206;2023-02-05T02:15:42;26.90;;;8.77;;
23394;SDS011;11870;53.084;18.206;2023-02-05T02:18:09;24.20;;;9.23;;
23394;SDS011;11870;53.084;18.206;2023-02-05T02:29:04;27.20;;;9.68;;
23394;SDS011;11870;53.084;18.206;2023-02-05T02:31:38;25.95;;;8.85;;
23394;SDS011;11870;53.084;18.206;2023-02-05T02:34:10;19.67;;;7.97;;
23394;SDS011;11870;53.084;18.206;2023-02-05T02:37:06;19.48;;;7.60;;
23394;SDS011;11870;53.084;18.206;2023-02-05T02:39:38;22.27;;;8.20;;
23394;SDS011;11870;53.084;18.206;2023-02-05T02:42:13;20.90;;;8.88;;
23394;SDS011;11870;53.084;18.206;2023-02-05T02:44:57;21.80;;;8.15;;
23394;SDS011;11870;53.084;18.206;2023-02-05T02:47:28;21.67;;;8.38;;
23394;SDS011;11870;53.084;18.206;2023-02-05T02:50:05;23.90;;;8.48;;
23394;SDS011;11870;53.084;18.206;2023-02-05T02:52:38;20.35;;;8.98;;
23394;SDS011;11870;53.084;18.206;2023-02-05T02:55:09;24.65;;;9.13;;
23394;SDS011;11870;53.084;18.206;2023-02-05T02:57:38;21.48;;;8.30;;
23394;SDS011;11870;53.084;18.206;2023-02-05T03:00:11;25.98;;;8.77;;
23394;SDS011;11870;53.084;18.206;2023-02-05T03:02:40;25.73;;;9.05;;
23394;SDS011;11870;53.084;18.206;2023-02-05T03:05:10;27.10;;;9.90;;
23394;SDS011;11870;53.084;18.206;2023-02-05T03:07:47;23.15;;;9.27;;
23394;SDS011;11870;53.084;18.206;2023-02-05T03:12:51;23.15;;;9.75;;
23394;SDS011;11870;53.084;18.206;2023-02-05T03:15:19;25.63;;;9.75;;
23394;SDS011;11870;53.084;18.206;2023-02-05T03:17:45;20.95;;;9.35;;
23394;SDS011;11870;53.084;18.206;2023-02-05T03:20:15;22.17;;;9.43;;
23394;SDS011;11870;53.084;18.206;2023-02-05T03:22:54;22.50;;;8.65;;
23394;SDS011;11870;53.084;18.206;2023-02-05T03:25:20;31.95;;;10.63;;
23394;SDS011;11870;53.084;18.206;2023-02-05T03:27:48;39.05;;;14.18;;
23394;SDS011;11870;53.084;18.206;2023-02-05T03:30:17;36.90;;;13.30;;
23394;SDS011;11870;53.084;18.206;2023-02-05T03:33:01;32.17;;;11.18;;
23394;SDS011;11870;53.084;18.206;2023-02-05T03:36:16;26.50;;;9.88;;
23394;SDS011;11870;53.084;18.206;2023-02-05T03:41:04;24.40;;;8.93;;
23394;SDS011;11870;53.084;18.206;2023-02-05T03:43:45;29.67;;;10.65;;
23394;SDS011;11870;53.084;18.206;2023-02-05T03:51:57;24.40;;;11.27;;
23394;SDS011;11870;53.084;18.206;2023-02-05T03:54:45;24.23;;;9.43;;
23394;SDS011;11870;53.084;18.206;2023-02-05T03:57:22;26.48;;;11.10;;
23394;SDS011;11870;53.084;18.206;2023-02-05T03:59:52;28.33;;;12.30;;
23394;SDS011;11870;53.084;18.206;2023-02-05T04:02:20;31.55;;;11.38;;
23394;SDS011;11870;53.084;18.206;2023-02-05T04:04:47;23.80;;;10.68;;
23394;SDS011;11870;53.084;18.206;2023-02-05T04:07:13;24.33;;;9.93;;
23394;SDS011;11870;53.084;18.206;2023-02-05T04:09:40;26.98;;;10.73;;
23394;SDS011;11870;53.084;18.206;2023-02-05T04:12:06;27.80;;;10.88;;
23394;SDS011;11870;53.084;18.206;2023-02-05T04:14:32;29.20;;;11.55;;
23394;SDS011;11870;53.084;18.206;2023-02-05T04:16:57;24.42;;;10.48;;
23394;SDS011;11870;53.084;18.206;2023-02-05T04:19:23;30.52;;;11.63;;
23394;SDS011;11870;53.084;18.206;2023-02-05T04:21:49;51.78;;;18.45;;
23394;SDS011;11870;53.084;18.206;2023-02-05T04:24:15;31.73;;;12.45;;
23394;SDS011;11870;53.084;18.206;2023-02-05T04:26:41;34.88;;;12.52;;
23394;SDS011;11870;53.084;18.206;2023-02-05T04:29:07;26.35;;;11.60;;
23394;SDS011;11870;53.084;18.206;2023-02-05T04:31:33;32.13;;;11.63;;
23394;SDS011;11870;53.084;18.206;2023-02-05T04:33:59;31.08;;;12.85;;
23394;SDS011;11870;53.084;18.206;2023-02-05T04:36:24;25.02;;;11.18;;
23394;SDS011;11870;53.084;18.206;2023-02-05T04:38:51;27.60;;;12.07;;
23394;SDS011;11870;53.084;18.206;2023-02-05T04:41:16;26.77;;;11.68;;
23394;SDS011;11870;53.084;18.206;2023-02-05T04:43:42;33.10;;;12.20;;
23394;SDS011;11870;53.084;18.206;2023-02-05T04:46:08;21.02;;;9.52;;
23394;SDS011;11870;53.084;18.206;2023-02-05T04:48:36;24.00;;;10.27;;
23394;SDS011;11870;53.084;18.206;2023-02-05T04:51:06;22.52;;;9.82;;
23394;SDS011;11870;53.084;18.206;2023-02-05T04:53:33;26.08;;;9.98;;
23394;SDS011;11870;53.084;18.206;2023-02-05T04:56:06;27.52;;;10.32;;
23394;SDS011;11870;53.084;18.206;2023-02-05T04:58:34;27.48;;;9.90;;
23394;SDS011;11870;53.084;18.206;2023-02-05T05:01:00;19.75;;;8.02;;
23394;SDS011;11870;53.084;18.206;2023-02-05T05:03:26;22.48;;;8.90;;
23394;SDS011;11870;53.084;18.206;2023-02-05T05:05:52;21.15;;;8.90;;
23394;SDS011;11870;53.084;18.206;2023-02-05T05:08:18;30.80;;;10.57;;
23394;SDS011;11870;53.084;18.206;2023-02-05T05:10:44;32.22;;;12.10;;
23394;SDS011;11870;53.084;18.206;2023-02-05T05:13:10;28.95;;;10.98;;
23394;SDS011;11870;53.084;18.206;2023-02-05T05:15:36;30.75;;;11.10;;
23394;SDS011;11870;53.084;18.206;2023-02-05T05:18:03;27.10;;;10.50;;
23394;SDS011;11870;53.084;18.206;2023-02-05T05:20:29;29.25;;;10.00;;
23394;SDS011;11870;53.084;18.206;2023-02-05T05:22:55;28.75;;;10.57;;
23394;SDS011;11870;53.084;18.206;2023-02-05T05:25:21;19.73;;;8.32;;
23394;SDS011;11870;53.084;18.206;2023-02-05T05:27:47;25.25;;;9.50;;
23394;SDS011;11870;53.084;18.206;2023-02-05T05:30:13;18.15;;;7.85;;
23394;SDS011;11870;53.084;18.206;2023-02-05T05:32:40;20.05;;;7.43;;
23394;SDS011;11870;53.084;18.206;2023-02-05T05:35:05;25.67;;;8.93;;
23394;SDS011;11870;53.084;18.206;2023-02-05T05:37:32;24.73;;;8.05;;
23394;SDS011;11870;53.084;18.206;2023-02-05T05:39:57;20.48;;;8.60;;
23394;SDS011;11870;53.084;18.206;2023-02-05T05:42:42;22.35;;;9.65;;
23394;SDS011;11870;53.084;18.206;2023-02-05T05:45:27;22.83;;;8.43;;
23394;SDS011;11870;53.084;18.206;2023-02-05T05:47:53;23.63;;;10.07;;
23394;SDS011;11870;53.084;18.206;2023-02-05T05:50:19;26.50;;;9.65;;
23394;SDS011;11870;53.084;18.206;2023-02-05T05:52:45;25.73;;;9.52;;
23394;SDS011;11870;53.084;18.206;2023-02-05T05:55:11;26.08;;;10.55;;
23394;SDS011;11870;53.084;18.206;2023-02-05T05:57:37;23.23;;;10.05;;
23394;SDS011;11870;53.084;18.206;2023-02-05T06:00:03;27.85;;;11.57;;
23394;SDS011;11870;53.084;18.206;2023-02-05T06:02:30;27.60;;;11.35;;
23394;SDS011;11870;53.084;18.206;2023-02-05T06:04:56;24.63;;;9.98;;
23394;SDS011;11870;53.084;18.206;2023-02-05T06:07:22;31.05;;;11.77;;
23394;SDS011;11870;53.084;18.206;2023-02-05T06:09:48;25.52;;;11.02;;
23394;SDS011;11870;53.084;18.206;2023-02-05T06:12:14;30.35;;;11.05;;
23394;SDS011;11870;53.084;18.206;2023-02-05T06:14:40;26.77;;;10.38;;
23394;SDS011;11870;53.084;18.206;2023-02-05T06:17:05;26.52;;;10.38;;
23394;SDS011;11870;53.084;18.206;2023-02-05T06:19:31;29.83;;;11.02;;
23394;SDS011;11870;53.084;18.206;2023-02-05T06:21:57;25.52;;;10.10;;
23394;SDS011;11870;53.084;18.206;2023-02-05T06:24:23;23.45;;;9.88;;
23394;SDS011;11870;53.084;18.206;2023-02-05T06:26:49;28.27;;;11.38;;
23394;SDS011;11870;53.084;18.206;2023-02-05T06:29:15;24.73;;;10.40;;
23394;SDS011;11870;53.084;18.206;2023-02-05T06:31:41;25.40;;;9.95;;
23394;SDS011;11870;53.084;18.206;2023-02-05T06:34:07;23.00;;;9.45;;
23394;SDS011;11870;53.084;18.206;2023-02-05T06:36:33;22.77;;;10.07;;
23394;SDS011;11870;53.084;18.206;2023-02-05T06:38:58;23.70;;;10.52;;
23394;SDS011;11870;53.084;18.206;2023-02-05T06:41:24;24.83;;;9.95;;
23394;SDS011;11870;53.084;18.206;2023-02-05T06:43:50;20.60;;;9.20;;
23394;SDS011;11870;53.084;18.206;2023-02-05T06:46:16;24.17;;;10.27;;
23394;SDS011;11870;53.084;18.206;2023-02-05T06:48:42;22.42;;;10.73;;
23394;SDS011;11870;53.084;18.206;2023-02-05T06:51:08;22.67;;;10.10;;
23394;SDS011;11870;53.084;18.206;2023-02-05T06:53:33;29.38;;;11.65;;
23394;SDS011;11870;53.084;18.206;2023-02-05T06:55:59;28.38;;;11.25;;
23394;SDS011;11870;53.084;18.206;2023-02-05T06:58:25;24.73;;;11.07;;
23394;SDS011;11870;53.084;18.206;2023-02-05T07:00:51;26.50;;;10.52;;
23394;SDS011;11870;53.084;18.206;2023-02-05T07:03:17;28.63;;;10.38;;
23394;SDS011;11870;53.084;18.206;2023-02-05T07:05:43;23.15;;;10.73;;
23394;SDS011;11870;53.084;18.206;2023-02-05T07:08:09;25.08;;;10.75;;
23394;SDS011;11870;53.084;18.206;2023-02-05T07:10:35;19.48;;;10.07;;
23394;SDS011;11870;53.084;18.206;2023-02-05T07:13:01;65.95;;;22.13;;
23394;SDS011;11870;53.084;18.206;2023-02-05T07:15:27;53.92;;;17.50;;
23394;SDS011;11870;53.084;18.206;2023-02-05T07:17:52;48.15;;;17.42;;
23394;SDS011;11870;53.084;18.206;2023-02-05T07:20:18;49.65;;;18.17;;
23394;SDS011;11870;53.084;18.206;2023-02-05T07:22:44;54.67;;;20.52;;
23394;SDS011;11870;53.084;18.206;2023-02-05T07:25:11;78.18;;;27.58;;
23394;SDS011;11870;53.084;18.206;2023-02-05T07:27:37;68.68;;;24.75;;
23394;SDS011;11870;53.084;18.206;2023-02-05T07:30:03;55.30;;;19.40;;
23394;SDS011;11870;53.084;18.206;2023-02-05T07:32:29;46.20;;;16.40;;
23394;SDS011;11870;53.084;18.206;2023-02-05T07:34:55;39.30;;;15.00;;
23394;SDS011;11870;53.084;18.206;2023-02-05T07:37:21;41.92;;;15.90;;
23394;SDS011;11870;53.084;18.206;2023-02-05T07:39:47;43.58;;;17.25;;
23394;SDS011;11870;53.084;18.206;2023-02-05T07:42:13;45.17;;;15.75;;
23394;SDS011;11870;53.084;18.206;2023-02-05T07:44:39;50.83;;;18.60;;
23394;SDS011;11870;53.084;18.206;2023-02-05T07:47:05;48.42;;;18.45;;
23394;SDS011;11870;53.084;18.206;2023-02-05T07:49:31;43.28;;;17.27;;
23394;SDS011;11870;53.084;18.206;2023-02-05T07:51:56;45.95;;;16.73;;
23394;SDS011;11870;53.084;18.206;2023-02-05T07:54:22;396.25;;;48.70;;
23394;SDS011;11870;53.084;18.206;2023-02-05T07:56:48;235.18;;;29.15;;
23394;SDS011;11870;53.084;18.206;2023-02-05T07:59:14;57.25;;;16.90;;
23394;SDS011;11870;53.084;18.206;2023-02-05T08:01:40;30.88;;;14.25;;
23394;SDS011;11870;53.084;18.206;2023-02-05T08:04:06;28.73;;;13.50;;
23394;SDS011;11870;53.084;18.206;2023-02-05T08:06:32;20.70;;;12.18;;
23394;SDS011;11870;53.084;18.206;2023-02-05T08:08:59;23.17;;;11.18;;
23394;SDS011;11870;53.084;18.206;2023-02-05T08:11:25;21.35;;;10.13;;
23394;SDS011;11870;53.084;18.206;2023-02-05T08:13:51;20.52;;;10.32;;
23394;SDS011;11870;53.084;18.206;2023-02-05T08:16:17;23.38;;;9.38;;
23394;SDS011;11870;53.084;18.206;2023-02-05T08:18:47;18.67;;;9.88;;
23394;SDS011;11870;53.084;18.206;2023-02-05T08:21:14;19.50;;;10.02;;
23394;SDS011;11870;53.084;18.206;2023-02-05T08:23:41;25.38;;;11.90;;
23394;SDS011;11870;53.084;18.206;2023-02-05T08:26:07;25.73;;;12.45;;
23394;SDS011;11870;53.084;18.206;2023-02-05T08:28:33;23.70;;;11.93;;
23394;SDS011;11870;53.084;18.206;2023-02-05T08:30:59;23.02;;;11.57;;
23394;SDS011;11870;53.084;18.206;2023-02-05T08:33:25;21.33;;;10.63;;
23394;SDS011;11870;53.084;18.206;2023-02-05T08:35:51;20.08;;;10.45;;
23394;SDS011;11870;53.084;18.206;2023-02-05T08:38:17;19.20;;;9.57;;
23394;SDS011;11870;53.084;18.206;2023-02-05T08:40:43;16.83;;;9.38;;
23394;SDS011;11870;53.084;18.206;2023-02-05T08:43:09;16.85;;;9.25;;
23394;SDS011;11870;53.084;18.206;2023-02-05T08:45:35;16.77;;;9.30;;
23394;SDS011;11870;53.084;18.206;2023-02-05T08:48:01;19.65;;;8.85;;
23394;SDS011;11870;53.084;18.206;2023-02-05T08:50:27;18.88;;;9.35;;
23394;SDS011;11870;53.084;18.206;2023-02-05T08:52:54;19.77;;;10.57;;
23394;SDS011;11870;53.084;18.206;2023-02-05T08:55:19;24.95;;;11.55;;
23394;SDS011;11870;53.084;18.206;2023-02-05T08:57:45;24.20;;;12.20;;
23394;SDS011;11870;53.084;18.206;2023-02-05T09:00:11;22.35;;;12.13;;
23394;SDS011;11870;53.084;18.206;2023-02-05T09:02:40;22.13;;;11.45;;
23394;SDS011;11870;53.084;18.206;2023-02-05T09:05:07;23.63;;;10.90;;
23394;SDS011;11870;53.084;18.206;2023-02-05T09:07:33;21.63;;;10.90;;
23394;SDS011;11870;53.084;18.206;2023-02-05T09:09:59;21.45;;;10.73;;
23394;SDS011;11870;53.084;18.206;2023-02-05T09:12:25;18.95;;;9.82;;
23394;SDS011;11870;53.084;18.206;2023-02-05T09:14:51;20.92;;;10.25;;
23394;SDS011;11870;53.084;18.206;2023-02-05T09:17:17;21.63;;;9.95;;
23394;SDS011;11870;53.084;18.206;2023-02-05T09:19:43;22.35;;;10.75;;
23394;SDS011;11870;53.084;18.206;2023-02-05T09:22:09;22.63;;;10.25;;
23394;SDS011;11870;53.084;18.206;2023-02-05T09:24:35;25.92;;;12.18;;
23394;SDS011;11870;53.084;18.206;2023-02-05T09:27:02;21.17;;;10.23;;
23394;SDS011;11870;53.084;18.206;2023-02-05T09:29:29;20.25;;;9.10;;
23394;SDS011;11870;53.084;18.206;2023-02-05T09:31:55;20.77;;;9.75;;
23394;SDS011;11870;53.084;18.206;2023-02-05T09:34:21;17.73;;;10.00;;
23394;SDS011;11870;53.084;18.206;2023-02-05T09:36:47;23.15;;;10.50;;
23394;SDS011;11870;53.084;18.206;2023-02-05T09:39:13;23.83;;;11.10;;
23394;SDS011;11870;53.084;18.206;2023-02-05T09:41:49;27.15;;;12.52;;
23394;SDS011;11870;53.084;18.206;2023-02-05T09:49:46;27.85;;;11.88;;
23394;SDS011;11870;53.084;18.206;2023-02-05T09:52:29;22.13;;;11.00;;
23394;SDS011;11870;53.084;18.206;2023-02-05T09:55:00;25.52;;;11.50;;
23394;SDS011;11870;53.084;18.206;2023-02-05T09:57:33;22.52;;;10.82;;
23394;SDS011;11870;53.084;18.206;2023-02-05T10:00:02;21.73;;;9.18;;
23394;SDS011;11870;53.084;18.206;2023-02-05T10:02:40;18.05;;;9.07;;
23394;SDS011;11870;53.084;18.206;2023-02-05T10:05:15;16.05;;;9.35;;
23394;SDS011;11870;53.084;18.206;2023-02-05T10:07:48;20.98;;;9.05;;
23394;SDS011;11870;53.084;18.206;2023-02-05T10:10:18;18.10;;;10.65;;
23394;SDS011;11870;53.084;18.206;2023-02-05T10:13:02;23.23;;;12.80;;
23394;SDS011;11870;53.084;18.206;2023-02-05T10:16:16;24.30;;;13.32;;
23394;SDS011;11870;53.084;18.206;2023-02-05T10:22:05;26.05;;;15.20;;
23394;SDS011;11870;53.084;18.206;2023-02-05T10:24:59;26.35;;;15.63;;
23394;SDS011;11870;53.084;18.206;2023-02-05T10:32:57;22.00;;;12.20;;
23394;SDS011;11870;53.084;18.206;2023-02-05T10:35:45;19.45;;;11.25;;
23394;SDS011;11870;53.084;18.206;2023-02-05T10:38:25;21.85;;;11.80;;
23394;SDS011;11870;53.084;18.206;2023-02-05T10:40:57;18.77;;;11.38;;
23394;SDS011;11870;53.084;18.206;2023-02-05T10:43:34;19.63;;;10.82;;
23394;SDS011;11870;53.084;18.206;2023-02-05T10:46:09;18.23;;;10.40;;
23394;SDS011;11870;53.084;18.206;2023-02-05T10:48:44;17.70;;;10.40;;
23394;SDS011;11870;53.084;18.206;2023-02-05T10:51:15;20.23;;;10.80;;
23394;SDS011;11870;53.084;18.206;2023-02-05T10:53:44;22.10;;;12.32;;
23394;SDS011;11870;53.084;18.206;2023-02-05T10:56:13;26.27;;;12.90;;
23394;SDS011;11870;53.084;18.206;2023-02-05T11:01:30;25.77;;;11.27;;
23394;SDS011;11870;53.084;18.206;2023-02-05T11:04:11;19.48;;;10.80;;
23394;SDS011;11870;53.084;18.206;2023-02-05T11:06:40;20.98;;;10.02;;
23394;SDS011;11870;53.084;18.206;2023-02-05T11:09:29;17.17;;;9.13;;
23394;SDS011;11870;53.084;18.206;2023-02-05T11:11:57;17.13;;;8.93;;
23394;SDS011;11870;53.084;18.206;2023-02-05T11:17:16;14.55;;;8.05;;
23394;SDS011;11870;53.084;18.206;2023-02-05T11:22:27;17.65;;;8.00;;
23394;SDS011;11870;53.084;18.206;2023-02-05T11:25:09;15.00;;;7.28;;
23394;SDS011;11870;53.084;18.206;2023-02-05T11:27:37;12.40;;;6.70;;
23394;SDS011;11870;53.084;18.206;2023-02-05T11:30:17;10.30;;;6.07;;
23394;SDS011;11870;53.084;18.206;2023-02-05T11:32:52;11.05;;;5.85;;
23394;SDS011;11870;53.084;18.206;2023-02-05T11:37:56;8.50;;;5.10;;
23394;SDS011;11870;53.084;18.206;2023-02-05T11:40:26;9.93;;;5.13;;
23394;SDS011;11870;53.084;18.206;2023-02-05T11:42:57;9.38;;;5.00;;
23394;SDS011;11870;53.084;18.206;2023-02-05T11:45:26;10.25;;;4.97;;
23394;SDS011;11870;53.084;18.206;2023-02-05T11:47:55;10.93;;;4.65;;
23394;SDS011;11870;53.084;18.206;2023-02-05T11:50:25;6.88;;;4.35;;
23394;SDS011;11870;53.084;18.206;2023-02-05T11:52:53;9.65;;;4.47;;
23394;SDS011;11870;53.084;18.206;2023-02-05T11:55:24;8.43;;;4.50;;
23394;SDS011;11870;53.084;18.206;2023-02-05T11:58:36;7.57;;;4.30;;
23394;SDS011;11870;53.084;18.206;2023-02-05T12:00:55;10.65;;;4.40;;
23394;SDS011;11870;53.084;18.206;2023-02-05T12:03:27;6.80;;;3.97;;
23394;SDS011;11870;53.084;18.206;2023-02-05T12:08:38;8.55;;;4.20;;
23394;SDS011;11870;53.084;18.206;2023-02-05T12:11:22;9.93;;;4.20;;
23394;SDS011;11870;53.084;18.206;2023-02-05T12:14:03;9.52;;;4.70;;
23394;SDS011;11870;53.084;18.206;2023-02-05T12:16:49;10.52;;;4.20;;
23394;SDS011;11870;53.084;18.206;2023-02-05T12:21:55;13.05;;;7.13;;
23394;SDS011;11870;53.084;18.206;2023-02-05T12:33:18;10.38;;;4.75;;
23394;SDS011;11870;53.084;18.206;2023-02-05T12:44:46;13.57;;;6.57;;
23394;SDS011;11870;53.084;18.206;2023-02-05T13:02:13;16.52;;;8.45;;
23394;SDS011;11870;53.084;18.206;2023-02-05T13:07:38;17.80;;;8.38;;
23394;SDS011;11870;53.084;18.206;2023-02-05T13:10:15;19.85;;;8.45;;
23394;SDS011;11870;53.084;18.206;2023-02-05T13:12:50;18.02;;;8.85;;
23394;SDS011;11870;53.084;18.206;2023-02-05T13:15:22;16.83;;;7.90;;
23394;SDS011;11870;53.084;18.206;2023-02-05T13:18:21;16.42;;;8.75;;
23394;SDS011;11870;53.084;18.206;2023-02-05T13:21:05;16.90;;;8.25;;
23394;SDS011;11870;53.084;18.206;2023-02-05T13:23:54;18.98;;;7.93;;
23394;SDS011;11870;53.084;18.206;2023-02-05T13:26:47;18.55;;;8.32;;
23394;SDS011;11870;53.084;18.206;2023-02-05T13:29:34;17.13;;;7.70;;
23394;SDS011;11870;53.084;18.206;2023-02-05T13:32:12;12.93;;;7.00;;
23394;SDS011;11870;53.084;18.206;2023-02-05T13:34:40;17.90;;;7.55;;
23394;SDS011;11870;53.084;18.206;2023-02-05T13:40:09;12.30;;;6.60;;
23394;SDS011;11870;53.084;18.206;2023-02-05T13:48:49;12.60;;;6.32;;
23394;SDS011;11870;53.084;18.206;2023-02-05T13:54:18;14.45;;;6.60;;
23394;SDS011;11870;53.084;18.206;2023-02-05T13:57:16;13.90;;;7.28;;
23394;SDS011;11870;53.084;18.206;2023-02-05T14:00:08;13.40;;;6.32;;
23394;SDS011;11870;53.084;18.206;2023-02-05T14:02:40;14.55;;;7.40;;
23394;SDS011;11870;53.084;18.206;2023-02-05T14:05:08;38.17;;;15.23;;
23394;SDS011;11870;53.084;18.206;2023-02-05T14:07:42;20.45;;;8.68;;
23394;SDS011;11870;53.084;18.206;2023-02-05T14:12:50;11.90;;;6.15;;
23394;SDS011;11870;53.084;18.206;2023-02-05T14:22:51;15.40;;;6.95;;
23394;SDS011;11870;53.084;18.206;2023-02-05T14:28:44;9.57;;;5.03;;
23394;SDS011;11870;53.084;18.206;2023-02-05T14:30:55;13.45;;;5.82;;
23394;SDS011;11870;53.084;18.206;2023-02-05T14:33:27;14.82;;;7.10;;
23394;SDS011;11870;53.084;18.206;2023-02-05T14:38:50;13.07;;;5.28;;
23394;SDS011;11870;53.084;18.206;2023-02-05T14:46:38;14.32;;;6.13;;
23394;SDS011;11870;53.084;18.206;2023-02-05T14:49:22;16.67;;;6.28;;
23394;SDS011;11870;53.084;18.206;2023-02-05T14:51:55;12.05;;;5.85;;
23394;SDS011;11870;53.084;18.206;2023-02-05T14:54:58;12.30;;;6.30;;
23394;SDS011;11870;53.084;18.206;2023-02-05T14:57:35;13.07;;;6.45;;
23394;SDS011;11870;53.084;18.206;2023-02-05T15:08:34;18.80;;;8.30;;
23394;SDS011;11870;53.084;18.206;2023-02-05T15:11:07;18.65;;;7.95;;
23394;SDS011;11870;53.084;18.206;2023-02-05T15:13:36;15.70;;;7.63;;
23394;SDS011;11870;53.084;18.206;2023-02-05T15:18:37;12.73;;;6.22;;
23394;SDS011;11870;53.084;18.206;2023-02-05T15:21:22;11.70;;;5.25;;
23394;SDS011;11870;53.084;18.206;2023-02-05T15:24:22;14.02;;;5.80;;
23394;SDS011;11870;53.084;18.206;2023-02-05T15:26:49;13.40;;;5.80;;
23394;SDS011;11870;53.084;18.206;2023-02-05T15:29:24;12.50;;;5.72;;
23394;SDS011;11870;53.084;18.206;2023-02-05T15:31:52;10.82;;;5.07;;
23394;SDS011;11870;53.084;18.206;2023-02-05T15:34:31;12.50;;;5.55;;
23394;SDS011;11870;53.084;18.206;2023-02-05T15:39:39;9.63;;;4.97;;
23394;SDS011;11870;53.084;18.206;2023-02-05T15:42:21;10.73;;;5.05;;
23394;SDS011;11870;53.084;18.206;2023-02-05T15:44:55;13.13;;;5.45;;
23394;SDS011;11870;53.084;18.206;2023-02-05T15:47:22;15.57;;;6.10;;
23394;SDS011;11870;53.084;18.206;2023-02-05T15:49:54;15.05;;;7.53;;
23394;SDS011;11870;53.084;18.206;2023-02-05T15:52:24;13.68;;;7.60;;
23394;SDS011;11870;53.084;18.206;2023-02-05T15:54:53;16.00;;;7.82;;
23394;SDS011;11870;53.084;18.206;2023-02-05T15:57:26;19.63;;;9.50;;
23394;SDS011;11870;53.084;18.206;2023-02-05T15:59:54;25.02;;;11.40;;
23394;SDS011;11870;53.084;18.206;2023-02-05T16:02:26;26.70;;;11.82;;
23394;SDS011;11870;53.084;18.206;2023-02-05T16:04:57;23.65;;;11.25;;
23394;SDS011;11870;53.084;18.206;2023-02-05T16:07:40;20.40;;;9.43;;
23394;SDS011;11870;53.084;18.206;2023-02-05T16:10:21;20.88;;;9.43;;
23394;SDS011;11870;53.084;18.206;2023-02-05T16:13:02;19.58;;;9.25;;
23394;SDS011;11870;53.084;18.206;2023-02-05T16:15:30;21.95;;;9.95;;
23394;SDS011;11870;53.084;18.206;2023-02-05T16:18:17;23.77;;;10.65;;
23394;SDS011;11870;53.084;18.206;2023-02-05T16:20:56;21.75;;;9.48;;
23394;SDS011;11870;53.084;18.206;2023-02-05T16:23:27;26.08;;;11.27;;
23394;SDS011;11870;53.084;18.206;2023-02-05T16:26:02;21.80;;;9.82;;
23394;SDS011;11870;53.084;18.206;2023-02-05T16:29:00;22.60;;;9.98;;
23394;SDS011;11870;53.084;18.206;2023-02-05T16:31:28;28.35;;;11.50;;
23394;SDS011;11870;53.084;18.206;2023-02-05T16:36:30;28.70;;;11.82;;
23394;SDS011;11870;53.084;18.206;2023-02-05T16:38:59;31.52;;;13.43;;
23394;SDS011;11870;53.084;18.206;2023-02-05T16:41:32;33.33;;;12.70;;
23394;SDS011;11870;53.084;18.206;2023-02-05T16:44:04;28.98;;;12.85;;
23394;SDS011;11870;53.084;18.206;2023-02-05T16:46:33;29.33;;;12.18;;
23394;SDS011;11870;53.084;18.206;2023-02-05T16:49:01;29.25;;;13.63;;